createdAt,value
2023-04-02T00:01:49.468Z,8.48
2023-04-02T00:12:20.265Z,8.47
2023-04-02T00:22:44.780Z,8.48
2023-04-02T00:33:05.993Z,8.48
2023-04-02T00:43:33.214Z,8.40
2023-04-02T00:53:57.079Z,8.30
2023-04-02T01:05:02.869Z,8.25
2023-04-02T01:16:05.506Z,8.24
2023-04-02T01:26:47.993Z,8.21
2023-04-02T01:37:32.436Z,8.18
2023-04-02T01:47:53.924Z,8.17
2023-04-02T01:58:25.455Z,8.13
2023-04-02T02:08:59.712Z,8.11
2023-04-02T02:19:42.528Z,8.08
2023-04-02T02:30:19.494Z,8.05
2023-04-02T02:40:46.176Z,8.03
2023-04-02T02:51:47.046Z,8.05
2023-04-02T03:02:15.417Z,8.05
2023-04-02T03:12:58.532Z,8.07
2023-04-02T03:23:42.651Z,8.06
2023-04-02T03:34:32.901Z,8.04
2023-04-02T03:45:19.952Z,8.04
2023-04-02T03:55:42.974Z,8.06
2023-04-02T04:06:13.664Z,8.08
2023-04-02T04:17:15.788Z,8.12
2023-04-02T04:27:52.867Z,8.11
2023-04-02T04:38:27.729Z,8.11
2023-04-02T04:49:03.312Z,8.09
2023-04-02T04:59:36.431Z,8.15
2023-04-02T05:10:12.729Z,8.17
2023-04-02T05:20:52.172Z,8.17
2023-04-02T05:31:23.079Z,8.25
2023-04-02T05:41:47.505Z,8.32
2023-04-02T05:52:27.612Z,8.34
2023-04-02T06:03:00.032Z,8.25
2023-04-02T06:13:22.100Z,8.29
2023-04-02T06:24:03.568Z,8.34
2023-04-02T06:34:30.726Z,8.36
2023-04-02T06:45:01.633Z,8.43
2023-04-02T06:56:08.131Z,8.52
2023-04-02T07:06:30.310Z,8.71
2023-04-02T07:16:55.244Z,8.71
2023-04-02T07:27:16.926Z,8.78
2023-04-02T07:37:38.817Z,8.93
2023-04-02T07:48:09.949Z,8.89
2023-04-02T07:58:33.195Z,8.94
2023-04-02T08:08:55.123Z,8.97
2023-04-02T08:19:16.697Z,8.95
2023-04-02T08:29:38.400Z,8.87
2023-04-02T08:39:59.463Z,8.83
2023-04-02T08:50:40.335Z,8.94
2023-04-02T09:01:04.522Z,8.93
2023-04-02T09:11:56.996Z,9.04
2023-04-02T09:22:27.848Z,9.02
2023-04-02T09:32:52.675Z,9.18
2023-04-02T09:43:31.868Z,9.23
2023-04-02T09:54:14.103Z,9.04
2023-04-02T10:04:48.087Z,8.94
2023-04-02T10:15:20.389Z,8.78
2023-04-02T10:26:13.039Z,8.72
2023-04-02T10:36:52.598Z,8.65
2023-04-02T10:47:27.265Z,8.54
2023-04-02T10:57:48.938Z,8.72
2023-04-02T11:08:20.706Z,8.71
2023-04-02T11:18:44.818Z,8.80
2023-04-02T11:29:27.524Z,8.90
2023-04-02T11:39:59.402Z,8.86
2023-04-02T11:50:35.244Z,9.09
2023-04-02T12:01:07.894Z,9.88
2023-04-02T12:11:39.197Z,9.55
2023-04-02T12:22:01.143Z,9.24
2023-04-02T12:32:30.662Z,9.15
2023-04-02T12:42:51.846Z,9.05
2023-04-02T12:53:35.902Z,9.07
2023-04-02T13:04:12.458Z,8.95
2023-04-02T13:14:24.472Z,8.92
2023-04-02T13:24:45.923Z,8.74
2023-04-02T13:35:08.097Z,8.62
2023-04-02T13:45:35.046Z,8.50
2023-04-02T13:55:56.669Z,8.41
2023-04-02T14:07:01.685Z,8.33
2023-04-02T14:18:00.578Z,8.31
2023-04-02T14:28:43.843Z,8.25
2023-04-02T14:39:15.449Z,8.23
2023-04-02T14:49:42.860Z,8.15
2023-04-02T15:00:09.950Z,8.15
2023-04-02T15:10:38.981Z,8.08
2023-04-02T15:21:29.533Z,8.04
2023-04-02T15:31:54.917Z,8.04
2023-04-02T15:42:25.598Z,7.99
2023-04-02T15:53:39.784Z,7.94
2023-04-02T16:04:13.705Z,7.92
2023-04-02T16:14:28.461Z,7.89
2023-04-02T16:25:06.216Z,7.84
2023-04-02T16:36:14.403Z,7.84
2023-04-02T16:47:08.992Z,7.84
2023-04-02T16:57:48.179Z,7.82
2023-04-02T17:08:27.264Z,7.82
2023-04-02T17:18:53.144Z,7.81
2023-04-02T17:29:22.320Z,7.77
2023-04-02T17:40:13.310Z,7.69
2023-04-02T17:50:58.980Z,7.58
2023-04-02T18:01:39.803Z,7.40
2023-04-02T18:12:42.424Z,6.95
2023-04-02T18:23:57.053Z,6.85
2023-04-02T18:34:49.899Z,6.69
2023-04-02T18:45:35.506Z,6.59
2023-04-02T18:56:05.374Z,6.53
2023-04-02T19:06:42.029Z,6.52
2023-04-02T19:17:27.198Z,6.45
2023-04-02T19:28:12.628Z,6.42
2023-04-02T19:39:05.983Z,6.35
2023-04-02T19:49:33.522Z,6.31
2023-04-02T19:59:55.021Z,6.26
2023-04-02T20:10:16.668Z,6.27
2023-04-02T20:20:39.392Z,6.30
2023-04-02T20:31:17.727Z,6.25
2023-04-02T20:41:39.199Z,6.22
2023-04-02T20:52:00.824Z,6.19
2023-04-02T21:02:21.867Z,6.16
2023-04-02T21:12:42.922Z,6.17
2023-04-02T21:23:03.942Z,6.14
2023-04-02T21:33:25.565Z,6.08
2023-04-02T21:43:48.384Z,6.05
2023-04-02T21:54:10.179Z,6.02
2023-04-02T22:04:33.329Z,6.00
2023-04-02T22:14:54.626Z,5.98
2023-04-02T22:25:15.798Z,5.96
2023-04-02T22:35:37.959Z,5.91
2023-04-02T22:45:59.548Z,5.87
2023-04-02T22:56:26.720Z,5.88
2023-04-02T23:06:48.268Z,5.85
2023-04-02T23:17:09.327Z,5.88
2023-04-02T23:27:30.513Z,5.89
2023-04-02T23:37:51.774Z,5.88
2023-04-02T23:48:12.884Z,5.85
2023-04-02T23:58:34.615Z,5.81
